PRINT OUT SECTION, show »

METAR EPBY 211600Z 12005KT 070V180 CAVOK 27/14 Q1013=

METAR EPGD 211600Z 06009KT 030V100 CAVOK 18/09 Q1015 =

METAR EPKK 211600Z 11009KT CAVOK 28/18 Q1014 =

METAR EPKT 211600Z 12004KT 100V160 CAVOK 30/18 Q1014 =

METAR EPLB 211600Z 10005KT CAVOK 27/14 Q1015 =

METAR EPLL 211600Z 10004KT 070V140 CAVOK 30/12 Q1013 =

METAR EPML 211600Z AUTO 11004KT 050V150 9999 SCT057/// 29/14 Q1014=

METAR EPMO 211600Z 13004KT CAVOK 27/13 Q1015 =

METAR EPPO 211600Z 09011KT CAVOK 28/14 Q1011 =

METAR EPRA 211600Z 11005KT 080V140 CAVOK 27/14 Q1015=

METAR EPRZ 211600Z 09005KT 050V130 CAVOK 28/15 Q1015 =

METAR EPSC 211600Z 05003KT 020V080 CAVOK 24/16 Q1012 =

METAR EPSY 211600Z 23004KT 170V310 CAVOK 26/10 Q1015=

METAR EPWA 211600Z 13007KT CAVOK 27/13 Q1015 NOSIG=

METAR EPWR 211600Z 11011KT CAVOK 31/18 Q1011 =

METAR EPZG 211600Z 07008KT CAVOK 28/17 Q1011 =
 METAR EPKT
Lokalizacja:EPKT Katowice Pyrzowice
Czas:16:00 UTC
Średni kierunek wiatru:120 °
Średnia prędkość wiatru:4 węzłów
Kierunek wiatru zmienia się od:100 °
Kierunek wiatru zmienia się do:160 °
CAVOK:Widzialność 10 km i więcej, zjawisko: NIL, zachmurzenie: NSC
Temperatura powietrza:30 °C
Temperatura punktu rosy:18 °C
Ciśnienie QNH:1014 hPa